createdAt,value
2018-12-27T00:00:50.262Z,101192.73
2018-12-27T00:03:21.143Z,101192.05
2018-12-27T00:05:52.366Z,101191.05
2018-12-27T00:08:23.624Z,101194.61
2018-12-27T00:10:54.462Z,101189.91
2018-12-27T00:13:25.330Z,101181.09
2018-12-27T00:15:56.365Z,101187.17
2018-12-27T00:18:27.245Z,101186.35
2018-12-27T00:20:58.279Z,101196.75
2018-12-27T00:23:29.248Z,101195.66
2018-12-27T00:26:00.255Z,101199.14
2018-12-27T00:28:31.444Z,101197.45
2018-12-27T00:31:02.448Z,101194.08
2018-12-27T00:33:33.668Z,101194.98
2018-12-27T00:36:05.527Z,101198.66
2018-12-27T00:38:36.851Z,101198.59
2018-12-27T00:41:08.233Z,101192.77
2018-12-27T00:43:39.233Z,101196.78
2018-12-27T00:46:10.657Z,101192.95
2018-12-27T00:49:00.240Z,101193.14
2018-12-27T00:54:07.186Z,101189.02
2018-12-27T00:59:14.360Z,101173.06
2018-12-27T01:01:45.425Z,101169.13
2018-12-27T01:04:16.477Z,101169.20
2018-12-27T01:06:47.531Z,100932.20
2018-12-27T01:09:18.645Z,101177.94
2018-12-27T01:11:49.725Z,101176.25
2018-12-27T01:14:21.068Z,101173.81
2018-12-27T01:16:52.476Z,101167.05
2018-12-27T01:19:23.601Z,101167.05
2018-12-27T01:21:54.748Z,101168.27
2018-12-27T01:24:44.675Z,101174.83
2018-12-27T01:27:15.904Z,101174.83
2018-12-27T01:30:06.067Z,101167.62
2018-12-27T01:32:37.865Z,101167.62
2018-12-27T01:35:09.161Z,101171.00
2018-12-27T01:37:40.484Z,101167.05
2018-12-27T01:40:11.597Z,101161.61
2018-12-27T01:42:42.621Z,101165.55
2018-12-27T01:45:13.965Z,101164.23
2018-12-27T01:47:45.281Z,101162.36
2018-12-27T01:50:16.266Z,101158.34
2018-12-27T01:52:47.436Z,101153.54
2018-12-27T01:55:19.021Z,101150.53
2018-12-27T01:57:50.456Z,101156.34
2018-12-27T02:00:21.562Z,101152.97
2018-12-27T02:02:52.582Z,101156.09
2018-12-27T02:05:23.784Z,101144.15
2018-12-27T02:07:55.516Z,101150.72
2018-12-27T02:10:26.524Z,101149.22
2018-12-27T02:13:16.135Z,101141.89
2018-12-27T02:15:47.500Z,101141.89
2018-12-27T02:18:18.694Z,101144.14
2018-12-27T02:20:50.537Z,101141.32
2018-12-27T02:23:21.608Z,101133.44
2018-12-27T02:26:03.216Z,101135.13
2018-12-27T02:28:36.067Z,101127.98
2018-12-27T02:33:43.617Z,101131.73
2018-12-27T02:36:14.742Z,101132.03
2018-12-27T02:38:46.172Z,101127.59
2018-12-27T02:41:17.198Z,101116.89
2018-12-27T02:46:25.473Z,101114.27
2018-12-27T02:48:56.509Z,101103.66
2018-12-27T02:51:27.587Z,101107.86
2018-12-27T02:54:17.213Z,101108.23
2018-12-27T02:56:48.377Z,101108.23
2018-12-27T02:59:19.434Z,101105.04
2018-12-27T03:01:50.529Z,101099.78
2018-12-27T03:04:21.644Z,101104.95
2018-12-27T03:06:52.667Z,101100.91
2018-12-27T03:09:24.070Z,101099.02
2018-12-27T03:11:55.390Z,101101.27
2018-12-27T03:14:26.765Z,101098.45
2018-12-27T03:16:58.240Z,101102.31
2018-12-27T03:19:29.277Z,101094.30
2018-12-27T03:22:00.324Z,101102.94
2018-12-27T03:24:31.472Z,101100.68
2018-12-27T03:27:02.503Z,101098.42
2018-12-27T03:32:10.376Z,101089.02
2018-12-27T03:37:17.694Z,101092.30
2018-12-27T03:39:49.205Z,101079.16
2018-12-27T03:42:21.549Z,101075.95
2018-12-27T03:44:52.529Z,101080.27
2018-12-27T03:47:23.598Z,101075.38
2018-12-27T03:49:54.605Z,101079.70
2018-12-27T03:55:02.132Z,101078.64
2018-12-27T03:57:33.604Z,101072.55
2018-12-27T04:00:04.740Z,101070.17
2018-12-27T04:02:36.036Z,101074.49
2018-12-27T04:05:07.575Z,101078.81
2018-12-27T04:07:38.625Z,101077.04
2018-12-27T04:10:09.641Z,101073.17
2018-12-27T04:12:40.725Z,101069.80
2018-12-27T04:15:11.897Z,101066.23
2018-12-27T04:20:19.240Z,101071.49
2018-12-27T04:22:50.387Z,101067.17
2018-12-27T04:25:21.393Z,101065.86
2018-12-27T04:27:52.355Z,101050.56
2018-12-27T04:33:39.182Z,101065.86
2018-12-27T04:39:12.559Z,101068.03
2018-12-27T04:42:21.903Z,101065.66
2018-12-27T04:45:03.804Z,101053.08
2018-12-27T04:47:35.139Z,101053.08
2018-12-27T04:50:06.749Z,101060.03
2018-12-27T04:52:37.997Z,101057.52
2018-12-27T04:55:09.259Z,101060.03
2018-12-27T05:00:16.455Z,101060.03
2018-12-27T05:02:47.537Z,101071.49
2018-12-27T05:05:18.384Z,101066.60
2018-12-27T05:07:49.300Z,101077.50
2018-12-27T05:10:20.407Z,101078.81
2018-12-27T05:12:51.488Z,101075.23
2018-12-27T05:15:22.535Z,101072.98
2018-12-27T05:17:53.439Z,101079.47
2018-12-27T05:20:24.396Z,101080.78
2018-12-27T05:22:55.358Z,101079.55
2018-12-27T05:25:26.260Z,101085.19
2018-12-27T05:30:44.061Z,101080.09
2018-12-27T05:33:15.194Z,101079.64
2018-12-27T05:35:46.173Z,101078.20
2018-12-27T05:38:17.056Z,101082.52
2018-12-27T05:40:48.364Z,101081.58
2018-12-27T05:43:19.223Z,101087.20
2018-12-27T05:45:50.331Z,101077.80
2018-12-27T05:48:21.426Z,101075.66
2018-12-27T05:50:52.308Z,101073.85
2018-12-27T05:53:23.668Z,101074.59
2018-12-27T05:55:54.530Z,101065.38
2018-12-27T05:58:25.430Z,101073.27
2018-12-27T06:00:56.392Z,101073.06
2018-12-27T06:03:27.351Z,101077.02
2018-12-27T06:06:17.312Z,101068.09
2018-12-27T06:08:49.424Z,101068.09
2018-12-27T06:11:20.275Z,101072.90
2018-12-27T06:13:51.214Z,101066.69
2018-12-27T06:16:22.130Z,101068.38
2018-12-27T06:18:53.543Z,101062.62
2018-12-27T06:21:24.512Z,101060.28
2018-12-27T06:23:55.385Z,101055.27
2018-12-27T06:26:26.526Z,101055.27
2018-12-27T06:28:57.484Z,101053.13
2018-12-27T06:34:05.192Z,101056.66
2018-12-27T06:36:36.304Z,101049.50
2018-12-27T06:42:23.344Z,101046.95
2018-12-27T06:44:54.213Z,101040.28
2018-12-27T06:47:25.123Z,101042.42
2018-12-27T06:49:56.365Z,101034.53
2018-12-27T06:52:27.332Z,101048.92
2018-12-27T06:54:58.376Z,101029.42
2018-12-27T06:57:29.362Z,101035.55
2018-12-27T07:00:00.406Z,101029.80
2018-12-27T07:02:31.389Z,101030.66
2018-12-27T07:05:02.263Z,101026.70
2018-12-27T07:07:33.498Z,101028.84
2018-12-27T07:10:04.438Z,101037.02
2018-12-27T07:12:35.337Z,101036.08
2018-12-27T07:15:06.612Z,101029.86
2018-12-27T07:17:37.866Z,101044.96
2018-12-27T07:20:09.420Z,101032.28
2018-12-27T07:22:40.437Z,101037.19
2018-12-27T07:25:11.338Z,101053.34
2018-12-27T07:27:42.395Z,101041.95
2018-12-27T07:30:13.308Z,101046.19
2018-12-27T07:32:44.417Z,101049.19
2018-12-27T07:35:15.492Z,101051.70
2018-12-27T07:37:46.433Z,101042.03
2018-12-27T07:40:17.488Z,101053.75
2018-12-27T07:42:48.396Z,101058.66
2018-12-27T07:45:19.355Z,101058.66
2018-12-27T07:47:50.318Z,101048.48
2018-12-27T07:50:21.400Z,101049.44
2018-12-27T07:52:52.461Z,101054.13
2018-12-27T07:55:23.412Z,101061.20
2018-12-27T07:57:54.251Z,101059.30
2018-12-27T08:00:25.486Z,101063.98
2018-12-27T08:02:56.397Z,101063.98
2018-12-27T08:05:27.509Z,101062.67
2018-12-27T08:07:58.397Z,101066.63
2018-12-27T08:10:29.402Z,101074.89
2018-12-27T08:13:18.996Z,101072.62
2018-12-27T08:15:50.547Z,101067.36
2018-12-27T08:18:21.551Z,101072.13
2018-12-27T08:20:52.449Z,101069.41
2018-12-27T08:23:23.373Z,101068.09
2018-12-27T08:25:54.867Z,101067.52
2018-12-27T08:28:26.178Z,101077.56
2018-12-27T08:30:57.394Z,101067.30
2018-12-27T08:33:28.741Z,101072.20
2018-12-27T08:36:00.164Z,101075.58
2018-12-27T08:38:31.882Z,101079.53
2018-12-27T08:41:22.400Z,101065.41
2018-12-27T08:43:53.630Z,101065.41
2018-12-27T08:46:24.503Z,101067.46
2018-12-27T08:48:55.482Z,101070.34
2018-12-27T08:51:26.485Z,101066.39
2018-12-27T08:53:57.503Z,101063.91
2018-12-27T08:56:28.457Z,101062.97
2018-12-27T08:58:59.332Z,101068.14
2018-12-27T09:01:30.198Z,101057.39
2018-12-27T09:04:01.363Z,101054.76
2018-12-27T09:06:32.199Z,101052.95
2018-12-27T09:11:54.557Z,101062.91
2018-12-27T09:14:25.714Z,101062.91
2018-12-27T09:16:57.734Z,101056.59
2018-12-27T09:19:47.798Z,101049.42
2018-12-27T09:22:21.912Z,101048.84
2018-12-27T09:24:54.285Z,101047.41
2018-12-27T09:27:25.190Z,101035.82
2018-12-27T09:29:56.157Z,101039.56
2018-12-27T09:32:27.078Z,101036.70
2018-12-27T09:34:59.337Z,101036.70
2018-12-27T09:37:30.564Z,101035.66
2018-12-27T09:42:53.386Z,101040.59
2018-12-27T09:45:24.285Z,101035.23
2018-12-27T09:47:55.794Z,101033.42
2018-12-27T09:51:06.912Z,101027.20
2018-12-27T09:53:49.720Z,101021.92
2018-12-27T09:56:21.510Z,101021.92
2018-12-27T09:58:52.809Z,101021.61
2018-12-27T10:01:42.661Z,101015.77
2018-12-27T10:04:13.706Z,101015.77
2018-12-27T10:06:45.010Z,101019.78
2018-12-27T10:09:17.318Z,101013.79
2018-12-27T10:11:48.248Z,101012.38
2018-12-27T10:14:19.122Z,101008.30
2018-12-27T10:16:50.133Z,100995.61
2018-12-27T10:19:21.354Z,100995.61
2018-12-27T10:24:47.657Z,100994.89
2018-12-27T10:27:19.028Z,100991.30
2018-12-27T10:29:50.190Z,100984.39
2018-12-27T10:32:21.065Z,100984.39
2018-12-27T10:34:52.428Z,100980.67
2018-12-27T10:37:23.444Z,100980.44
2018-12-27T10:39:54.488Z,100978.53
2018-12-27T10:42:26.091Z,100966.67
2018-12-27T10:44:57.322Z,100972.24
2018-12-27T10:47:30.071Z,100966.97
2018-12-27T10:50:01.412Z,100957.51
2018-12-27T10:55:09.802Z,100963.15
2018-12-27T10:57:42.014Z,100953.19
2018-12-27T11:00:14.079Z,100946.47
2018-12-27T11:02:45.060Z,100946.23
2018-12-27T11:05:16.353Z,100930.41
2018-12-27T11:07:47.251Z,100936.64
2018-12-27T11:10:18.809Z,100934.86
2018-12-27T11:12:49.990Z,100922.50
2018-12-27T11:15:20.965Z,100928.50
2018-12-27T11:17:52.085Z,100924.18
2018-12-27T11:20:23.092Z,100921.55
2018-12-27T11:23:14.143Z,100923.36
2018-12-27T11:25:45.440Z,100905.22
2018-12-27T11:28:16.726Z,100905.36
2018-12-27T11:30:48.706Z,100906.08
2018-12-27T11:33:19.861Z,100902.13
2018-12-27T11:35:55.703Z,100906.21
2018-12-27T11:38:24.447Z,100904.80
2018-12-27T11:40:57.737Z,100914.75
2018-12-27T11:43:29.831Z,100908.38
2018-12-27T11:46:01.189Z,100909.11
2018-12-27T11:48:32.851Z,100907.20
2018-12-27T11:51:04.233Z,100904.43
2018-12-27T11:53:35.781Z,100904.80
2018-12-27T11:56:08.121Z,100905.16
2018-12-27T11:58:39.473Z,100905.52
2018-12-27T12:01:10.634Z,100909.47
2018-12-27T12:03:41.768Z,100895.33
2018-12-27T12:06:13.116Z,100898.09
2018-12-27T12:08:44.770Z,100903.60
2018-12-27T12:11:16.607Z,100895.20
2018-12-27T12:13:48.003Z,100895.33
2018-12-27T12:16:19.800Z,100897.14
2018-12-27T12:18:51.211Z,100897.97
2018-12-27T12:21:24.078Z,100890.55
2018-12-27T12:23:56.402Z,100898.46
2018-12-27T12:26:27.487Z,100902.64
2018-12-27T12:28:58.841Z,100888.88
2018-12-27T12:31:30.469Z,100882.27
2018-12-27T12:34:01.753Z,100883.59
2018-12-27T12:39:24.445Z,100880.95
2018-12-27T12:41:55.515Z,100882.39
2018-12-27T12:44:26.621Z,100884.23
2018-12-27T12:46:58.551Z,100883.88
2018-12-27T12:52:20.716Z,100882.67
2018-12-27T12:55:10.907Z,100888.31
2018-12-27T12:58:09.286Z,100888.31
2018-12-27T13:00:40.398Z,100886.41
2018-12-27T13:03:11.597Z,100895.88
2018-12-27T13:05:42.916Z,100892.27
2018-12-27T13:08:14.178Z,100901.28
2018-12-27T13:10:45.716Z,100901.38
2018-12-27T13:13:17.208Z,100902.02
2018-12-27T13:15:48.657Z,100902.50
2018-12-27T13:18:19.581Z,100914.38
2018-12-27T13:20:50.857Z,100896.86
2018-12-27T13:23:22.237Z,100904.04
2018-12-27T13:25:53.197Z,100901.30
2018-12-27T13:28:43.132Z,100897.57
2018-12-27T13:34:22.274Z,100903.79
2018-12-27T13:36:53.492Z,100905.84
2018-12-27T13:39:24.833Z,100905.83
2018-12-27T13:41:56.517Z,100903.52
2018-12-27T13:44:27.533Z,100909.91
2018-12-27T13:46:58.910Z,100898.03
2018-12-27T13:49:30.367Z,100906.45
2018-12-27T13:52:01.321Z,100904.88
2018-12-27T13:54:32.434Z,100906.45
2018-12-27T13:57:03.388Z,100912.45
2018-12-27T14:02:11.564Z,100906.62
2018-12-27T14:04:42.439Z,100907.89
2018-12-27T14:07:13.434Z,100908.36
2018-12-27T14:10:03.267Z,100907.92
2018-12-27T14:12:34.295Z,100907.92
2018-12-27T14:15:05.281Z,100909.24
2018-12-27T14:17:36.166Z,100908.29
2018-12-27T14:20:08.002Z,100904.70
2018-12-27T14:25:49.093Z,100904.56
2018-12-27T14:28:20.310Z,100902.75
2018-12-27T14:30:53.125Z,100905.38
2018-12-27T14:33:25.569Z,100908.97
2018-12-27T14:35:56.506Z,100894.83
2018-12-27T14:38:27.497Z,100897.20
2018-12-27T14:40:58.472Z,100898.89
2018-12-27T14:43:29.333Z,100892.88
2018-12-27T14:46:00.468Z,100904.66
2018-12-27T14:48:31.361Z,100897.20
2018-12-27T14:51:21.219Z,100903.80
2018-12-27T14:53:52.290Z,100901.89
2018-12-27T14:56:23.521Z,100894.20
2018-12-27T14:58:54.699Z,100898.02
2018-12-27T15:01:25.668Z,100887.94
2018-12-27T15:03:57.019Z,100894.28
2018-12-27T15:06:28.205Z,100892.70
2018-12-27T15:09:17.809Z,100890.52
2018-12-27T15:11:49.600Z,100890.75
2018-12-27T15:14:20.898Z,100898.41
2018-12-27T15:16:52.388Z,100895.15
2018-12-27T15:19:23.672Z,100902.55
2018-12-27T15:21:54.632Z,100898.69
2018-12-27T15:24:25.777Z,100899.62
2018-12-27T15:26:57.000Z,100896.62
2018-12-27T15:29:28.211Z,100901.77
2018-12-27T15:31:59.383Z,100908.34
2018-12-27T15:34:30.533Z,100904.02
2018-12-27T15:37:01.595Z,100907.70
2018-12-27T15:39:32.518Z,100902.20
2018-12-27T15:42:03.655Z,100904.34
2018-12-27T15:44:34.554Z,100902.07
2018-12-27T15:47:06.054Z,100901.83
2018-12-27T15:49:56.086Z,100896.27
2018-12-27T15:52:27.538Z,100896.27
2018-12-27T15:54:58.468Z,100897.61
2018-12-27T15:57:30.328Z,100897.59
2018-12-27T16:00:01.743Z,100896.37
2018-12-27T16:02:53.038Z,100889.47
2018-12-27T16:05:24.561Z,100896.12
2018-12-27T16:07:55.521Z,100892.62
2018-12-27T16:10:26.495Z,100894.08
2018-12-27T16:12:57.701Z,100889.18
2018-12-27T16:15:29.171Z,100890.86
2018-12-27T16:18:00.212Z,100891.96
2018-12-27T16:20:31.249Z,100890.27
2018-12-27T16:23:02.406Z,100898.91
2018-12-27T16:25:33.423Z,100900.46
2018-12-27T16:28:09.460Z,100900.90
2018-12-27T16:30:40.538Z,100904.23
2018-12-27T16:33:11.778Z,100905.92
2018-12-27T16:36:01.662Z,100907.09
2018-12-27T16:38:33.109Z,100907.09
2018-12-27T16:41:04.587Z,100915.23
2018-12-27T16:43:35.521Z,100905.41
2018-12-27T16:46:06.491Z,100899.41
2018-12-27T16:48:37.837Z,100895.19
2018-12-27T16:51:09.155Z,100894.36
2018-12-27T16:53:40.143Z,100893.99
2018-12-27T16:56:11.146Z,100896.99
2018-12-27T16:58:42.118Z,100890.05
2018-12-27T17:01:13.297Z,100888.36
2018-12-27T17:03:44.860Z,100894.73
2018-12-27T17:06:16.106Z,100887.78
2018-12-27T17:08:47.529Z,100894.87
2018-12-27T17:11:18.492Z,100894.87
2018-12-27T17:13:49.649Z,100894.97
2018-12-27T17:16:20.657Z,100893.56
2018-12-27T17:18:51.944Z,100898.02
2018-12-27T17:21:23.115Z,100892.83
2018-12-27T17:23:54.537Z,100892.83
2018-12-27T17:26:25.427Z,100903.02
2018-12-27T17:28:56.526Z,100903.88
2018-12-27T17:31:27.475Z,100905.13
2018-12-27T17:37:00.707Z,100907.88
2018-12-27T17:39:32.160Z,100907.88
2018-12-27T17:44:40.363Z,100912.05
2018-12-27T17:47:12.527Z,100897.45
2018-12-27T17:49:43.564Z,100903.42
2018-12-27T17:52:14.455Z,100905.47
2018-12-27T17:54:45.582Z,100906.42
2018-12-27T17:57:17.752Z,100908.31
2018-12-27T17:59:48.976Z,100908.90
2018-12-27T18:02:20.814Z,100904.09
2018-12-27T18:04:52.384Z,100901.22
2018-12-27T18:07:30.368Z,100898.67
2018-12-27T18:18:13.276Z,100890.56
2018-12-27T18:20:45.673Z,100887.69
2018-12-27T18:26:26.540Z,100891.85
2018-12-27T18:28:57.482Z,100881.69
2018-12-27T18:31:28.589Z,100880.10
2018-12-27T18:33:59.533Z,100884.54
2018-12-27T18:36:30.477Z,100883.59
2018-12-27T18:39:01.497Z,100884.33
2018-12-27T18:41:33.503Z,100885.06
2018-12-27T18:44:04.576Z,100878.20
2018-12-27T18:46:36.758Z,100875.36
2018-12-27T18:49:08.064Z,100881.84
2018-12-27T18:51:39.352Z,100883.75
2018-12-27T18:54:10.403Z,100893.78
2018-12-27T18:56:41.581Z,100889.00
2018-12-27T18:59:12.588Z,100884.11
2018-12-27T19:01:44.822Z,100884.11
2018-12-27T19:04:16.733Z,100880.16
2018-12-27T19:06:49.025Z,100878.72
2018-12-27T19:09:20.212Z,100871.56
2018-12-27T19:12:28.335Z,100879.80
2018-12-27T19:15:03.662Z,100883.16
2018-12-27T19:17:56.895Z,100877.53
2018-12-27T19:23:27.130Z,100883.75
2018-12-27T19:25:58.344Z,100875.70
2018-12-27T19:28:30.351Z,100887.91
2018-12-27T19:31:01.288Z,100885.27
2018-12-27T19:33:32.449Z,100890.91
2018-12-27T19:36:03.519Z,100887.91
2018-12-27T19:38:34.532Z,100887.17
2018-12-27T19:41:05.705Z,100888.36
2018-12-27T19:43:37.198Z,100903.11
2018-12-27T19:46:08.617Z,100900.57
2018-12-27T19:48:39.771Z,100905.26
2018-12-27T19:51:11.324Z,100894.12
2018-12-27T19:53:42.599Z,100897.48
2018-12-27T19:56:13.990Z,100892.59
2018-12-27T19:58:45.307Z,100892.22
2018-12-27T20:01:16.655Z,100901.89
2018-12-27T20:03:48.196Z,100891.73
2018-12-27T20:06:20.318Z,100881.91
2018-12-27T20:08:52.246Z,100891.85
2018-12-27T20:14:39.323Z,100887.39
2018-12-27T20:17:22.169Z,100882.73
2018-12-27T20:19:54.613Z,100879.49
2018-12-27T20:22:27.747Z,100879.86
2018-12-27T20:25:00.187Z,100881.17
2018-12-27T20:30:12.117Z,100878.63
2018-12-27T20:32:44.571Z,100876.00
2018-12-27T20:35:16.646Z,100876.12
2018-12-27T20:37:49.443Z,100873.95
2018-12-27T20:43:29.536Z,100856.20
2018-12-27T20:49:14.251Z,100855.81
2018-12-27T20:52:24.374Z,100869.15
2018-12-27T20:55:16.456Z,100856.42
2018-12-27T20:57:49.488Z,100856.42
2018-12-27T21:00:22.406Z,100859.48
2018-12-27T21:02:55.538Z,100855.08
2018-12-27T21:05:28.877Z,100852.45
2018-12-27T21:08:01.432Z,100858.53
2018-12-27T21:10:34.137Z,100845.47
2018-12-27T21:13:06.048Z,100848.59
2018-12-27T21:15:38.411Z,100848.59
2018-12-27T21:18:10.193Z,100839.02
2018-12-27T21:23:52.305Z,100832.80
2018-12-27T21:26:24.442Z,100822.73
2018-12-27T21:29:18.741Z,100821.78
2018-12-27T21:35:01.361Z,100827.45
2018-12-27T21:37:33.185Z,100829.75
2018-12-27T21:40:23.421Z,100814.55
2018-12-27T21:42:55.204Z,100814.55
2018-12-27T21:45:27.233Z,100820.54
2018-12-27T21:47:58.969Z,100824.12
2018-12-27T21:50:30.430Z,100826.14
2018-12-27T21:58:48.602Z,100830.75
2018-12-27T22:01:19.881Z,100833.02
2018-12-27T22:03:51.271Z,100821.55
2018-12-27T22:06:40.990Z,100828.80
2018-12-27T22:09:32.553Z,100828.80
2018-12-27T22:12:04.411Z,100820.91
2018-12-27T22:14:37.847Z,100818.86
2018-12-27T22:17:09.581Z,100811.33
2018-12-27T22:19:41.118Z,100810.59
2018-12-27T22:22:12.207Z,100808.55
2018-12-27T22:25:02.472Z,100805.83
2018-12-27T22:27:34.004Z,100805.83
2018-12-27T22:30:05.472Z,100810.23
2018-12-27T22:32:36.690Z,100817.30
2018-12-27T22:35:08.052Z,100809.86
2018-12-27T22:37:39.278Z,100808.55
2018-12-27T22:43:25.880Z,100813.72
2018-12-27T22:46:08.182Z,100815.92
2018-12-27T22:51:16.652Z,100804.58
2018-12-27T22:53:48.397Z,100816.20
2018-12-27T22:56:19.409Z,100814.98
2018-12-27T22:58:50.590Z,100810.45
2018-12-27T23:04:18.370Z,100803.88
2018-12-27T23:06:49.644Z,100800.88
2018-12-27T23:09:21.200Z,100805.31
2018-12-27T23:11:52.819Z,100800.41
2018-12-27T23:14:42.884Z,100796.32
2018-12-27T23:17:25.286Z,100799.77
2018-12-27T23:19:56.363Z,100799.77
2018-12-27T23:22:27.578Z,100800.14
2018-12-27T23:24:58.473Z,100789.37
2018-12-27T23:27:29.668Z,100804.21
2018-12-27T23:30:00.712Z,100811.52
2018-12-27T23:32:32.069Z,100800.14
2018-12-27T23:35:03.464Z,100801.82
2018-12-27T23:37:34.364Z,100802.41
2018-12-27T23:43:00.945Z,100793.05
2018-12-27T23:45:32.389Z,100793.05
2018-12-27T23:48:03.659Z,100807.30
2018-12-27T23:50:35.762Z,100804.42
2018-12-27T23:56:08.194Z,100802.16
2018-12-27T23:58:39.569Z,100799.63
